Time;durP1;ratioP1;P1;durP2;ratioP2;P2;SDS_P1;SDS_P2;PMS_P1;PMS_P2;Temp;Humidity;BMP_temperature;BMP_pressure;BME280_temperature;BME280_humidity;BME280_pressure;Samples;Min_cycle;Max_cycle;Signal;HPM_P1;HPM_P2
2022/01/05 00:01:07;;;;;;;115.28;73.13;;;6.30;99.90;;;;;;5012655;28;20057;-80
2022/01/05 00:03:34;;;;;;;127.45;75.10;;;6.30;99.90;;;;;;5014070;28;20042;-78
2022/01/05 00:06:00;;;;;;;126.25;77.97;;;6.20;99.90;;;;;;5013966;28;20077;-80
2022/01/05 00:08:26;;;;;;;123.70;77.35;;;6.20;99.90;;;;;;5013890;28;20050;-80
2022/01/05 00:10:52;;;;;;;146.55;84.60;;;6.10;99.90;;;;;;5014495;28;20032;-80
2022/01/05 00:13:18;;;;;;;129.65;74.75;;;6.00;99.90;;;;;;5015977;28;20034;-79
2022/01/05 00:15:44;;;;;;;129.27;77.65;;;6.00;99.90;;;;;;5024045;28;20053;-79
2022/01/05 00:18:10;;;;;;;117.85;72.50;;;6.00;99.90;;;;;;5022779;28;20033;-76
2022/01/05 00:20:36;;;;;;;109.57;68.40;;;6.10;99.90;;;;;;5021927;28;20539;-79
2022/01/05 00:23:02;;;;;;;104.45;70.63;;;6.10;99.90;;;;;;5022628;28;20503;-79
2022/01/05 00:25:28;;;;;;;117.40;75.82;;;6.10;99.90;;;;;;5022260;28;20038;-76
2022/01/05 00:27:53;;;;;;;120.30;75.22;;;6.10;99.90;;;;;;5020611;28;20037;-79
2022/01/05 00:30:21;;;;;;;116.15;68.75;;;6.10;99.90;;;;;;5016411;28;20033;-77
2022/01/05 00:32:47;;;;;;;116.63;70.13;;;6.10;99.90;;;;;;5013510;28;20022;-77
2022/01/05 00:35:13;;;;;;;123.95;73.75;;;6.10;99.90;;;;;;5013330;28;20105;-78
2022/01/05 00:37:39;;;;;;;95.13;56.10;;;6.10;99.90;;;;;;5013450;28;20036;-77
2022/01/05 00:40:06;;;;;;;77.97;44.63;;;6.10;99.90;;;;;;5013437;28;20080;-76
2022/01/05 00:42:33;;;;;;;70.88;41.22;;;6.20;99.90;;;;;;5013403;28;20428;-79
2022/01/05 00:44:58;;;;;;;68.15;39.92;;;6.30;99.90;;;;;;5013337;28;20026;-78
2022/01/05 00:47:25;;;;;;;69.03;40.28;;;6.50;99.90;;;;;;5013339;28;20076;-75
2022/01/05 00:49:50;;;;;;;61.65;36.53;;;6.60;99.90;;;;;;5013225;28;20481;-77
2022/01/05 00:52:16;;;;;;;53.63;31.17;;;6.70;99.90;;;;;;5013049;28;20072;-79
2022/01/05 00:54:42;;;;;;;41.97;25.73;;;6.80;99.90;;;;;;5013186;28;20034;-79
2022/01/05 00:57:08;;;;;;;49.67;24.40;;;6.90;99.90;;;;;;5012678;28;20408;-76
2022/01/05 00:59:34;;;;;;;35.70;21.10;;;7.10;99.90;;;;;;5013087;28;20038;-77
2022/01/05 01:02:00;;;;;;;37.33;19.02;;;7.20;99.90;;;;;;5013031;28;20022;-77
2022/01/05 01:04:26;;;;;;;38.55;21.05;;;7.40;99.90;;;;;;5012683;28;20029;-77
2022/01/05 01:06:52;;;;;;;35.13;20.20;;;7.50;99.90;;;;;;5012707;28;20030;-78
2022/01/05 01:09:17;;;;;;;37.08;21.25;;;7.50;99.90;;;;;;5013005;28;20048;-78
2022/01/05 01:11:43;;;;;;;40.33;22.35;;;7.60;99.90;;;;;;5012477;28;20493;-76
2022/01/05 01:14:10;;;;;;;43.38;23.80;;;7.60;99.90;;;;;;5012424;28;20038;-77
2022/01/05 01:16:36;;;;;;;39.35;22.67;;;7.70;99.90;;;;;;5012732;28;20033;-78
2022/01/05 01:19:02;;;;;;;40.60;23.33;;;7.60;99.90;;;;;;5012727;28;20408;-79
2022/01/05 01:21:28;;;;;;;35.35;18.27;;;7.60;99.90;;;;;;5012669;28;20030;-80
2022/01/05 01:23:55;;;;;;;39.58;21.80;;;7.60;99.90;;;;;;5012660;28;20105;-79
2022/01/05 01:26:29;;;;;;;36.72;20.50;;;7.50;99.90;;;;;;5012483;28;20081;-79
2022/01/05 01:28:56;;;;;;;36.08;20.58;;;7.50;99.90;;;;;;5012476;28;20080;-79
2022/01/05 01:31:22;;;;;;;42.35;21.20;;;7.50;99.90;;;;;;5012550;28;20113;-80
2022/01/05 01:33:48;;;;;;;34.88;17.45;;;7.40;99.90;;;;;;5012285;28;20396;-78
2022/01/05 01:36:15;;;;;;;34.15;20.25;;;7.40;99.90;;;;;;5012233;28;20033;-79
2022/01/05 01:38:44;;;;;;;32.47;20.00;;;7.30;99.90;;;;;;5012269;28;20029;-79
2022/01/05 01:41:10;;;;;;;43.38;23.08;;;7.30;99.90;;;;;;5012292;28;20041;-79
2022/01/05 01:43:37;;;;;;;36.67;22.90;;;7.30;99.90;;;;;;5012300;28;20028;-80
2022/01/05 01:46:05;;;;;;;37.85;23.25;;;7.30;99.90;;;;;;5012078;28;20172;-80
2022/01/05 01:48:31;;;;;;;47.15;26.00;;;7.30;99.90;;;;;;5027027;28;20038;-80
2022/01/05 01:50:58;;;;;;;45.58;26.25;;;7.20;99.90;;;;;;5012226;28;20112;-79
2022/01/05 01:53:24;;;;;;;43.17;25.40;;;7.10;99.90;;;;;;5012564;28;20034;-77
2022/01/05 01:55:51;;;;;;;44.80;27.67;;;7.00;99.90;;;;;;5011815;28;20042;-77
2022/01/05 01:58:19;;;;;;;47.28;27.02;;;7.10;99.90;;;;;;5012070;28;20033;-77
2022/01/05 02:00:45;;;;;;;43.45;25.42;;;7.00;99.90;;;;;;5012096;28;20530;-77
2022/01/05 02:03:12;;;;;;;38.15;24.00;;;7.00;99.90;;;;;;5012152;28;20030;-78
2022/01/05 02:05:38;;;;;;;43.47;26.40;;;7.00;99.90;;;;;;5011920;28;20033;-76
2022/01/05 02:08:05;;;;;;;35.65;22.08;;;7.10;99.90;;;;;;5011771;28;20133;-75
2022/01/05 02:10:31;;;;;;;39.42;23.58;;;7.20;99.90;;;;;;5011901;28;20129;-77
2022/01/05 02:12:57;;;;;;;40.35;24.23;;;7.30;99.90;;;;;;5011773;28;20029;-77
2022/01/05 02:15:23;;;;;;;39.78;24.58;;;7.30;99.90;;;;;;5011908;28;20443;-77
2022/01/05 02:20:46;;;;;;;34.05;20.75;;;7.30;99.90;;;;;;5003224;28;20038;-77
2022/01/05 02:23:12;;;;;;;40.08;22.10;;;7.40;99.90;;;;;;5010830;28;20034;-76
2022/01/05 02:25:37;;;;;;;35.53;21.17;;;7.40;99.90;;;;;;5011563;28;20096;-77
2022/01/05 02:28:03;;;;;;;29.70;19.70;;;7.40;99.90;;;;;;5011558;28;20029;-77
2022/01/05 02:30:31;;;;;;;33.33;18.83;;;7.40;99.90;;;;;;5011538;28;20068;-78
2022/01/05 02:32:57;;;;;;;32.70;17.15;;;7.50;99.90;;;;;;5011562;28;20033;-77
2022/01/05 02:35:24;;;;;;;27.90;15.32;;;7.60;99.90;;;;;;5011622;28;20041;-78
2022/01/05 02:37:53;;;;;;;26.33;15.65;;;7.70;99.90;;;;;;5011414;28;20076;-78
2022/01/05 02:40:21;;;;;;;28.30;15.77;;;7.80;99.90;;;;;;5011332;28;20033;-79
2022/01/05 02:42:48;;;;;;;29.42;17.55;;;7.80;99.90;;;;;;5011457;28;20469;-79
2022/01/05 02:45:15;;;;;;;27.05;16.92;;;7.80;99.90;;;;;;5011312;28;20058;-78
2022/01/05 02:47:42;;;;;;;30.70;16.90;;;7.90;99.90;;;;;;5011329;28;20160;-79
2022/01/05 02:50:10;;;;;;;27.08;15.45;;;7.90;99.90;;;;;;5011378;28;20026;-78
2022/01/05 02:52:36;;;;;;;28.15;15.23;;;7.90;99.90;;;;;;5011119;28;20026;-79
2022/01/05 02:55:04;;;;;;;27.85;14.68;;;8.00;99.90;;;;;;5011176;28;20096;-79
2022/01/05 02:57:30;;;;;;;26.90;14.20;;;8.10;99.90;;;;;;5010914;28;20049;-79
2022/01/05 02:59:56;;;;;;;22.75;11.07;;;8.10;99.90;;;;;;5011171;28;20476;-77
2022/01/05 03:02:22;;;;;;;19.83;10.82;;;8.10;99.90;;;;;;5011575;28;20026;-79
2022/01/05 03:04:48;;;;;;;26.25;14.10;;;8.20;99.90;;;;;;5011548;28;20034;-78
2022/01/05 03:07:16;;;;;;;27.23;15.60;;;8.20;99.90;;;;;;5010869;28;20032;-78
2022/01/05 03:09:42;;;;;;;27.20;16.20;;;8.20;99.90;;;;;;5011169;28;20034;-79
2022/01/05 03:12:10;;;;;;;41.88;25.63;;;8.20;99.90;;;;;;5011065;28;20026;-79
2022/01/05 03:14:36;;;;;;;37.35;21.27;;;8.20;99.90;;;;;;5010947;28;20034;-78
2022/01/05 03:17:02;;;;;;;31.20;19.75;;;8.20;99.90;;;;;;5011082;28;20028;-80
2022/01/05 03:19:28;;;;;;;29.70;17.00;;;8.20;99.90;;;;;;5011042;28;20029;-78
2022/01/05 03:21:54;;;;;;;27.50;16.95;;;8.20;99.90;;;;;;5010766;28;20132;-79
2022/01/05 03:24:21;;;;;;;26.02;16.48;;;8.10;99.90;;;;;;5010583;28;20030;-79
2022/01/05 03:26:47;;;;;;;24.55;14.05;;;8.10;99.90;;;;;;5010955;28;20124;-79
2022/01/05 03:29:13;;;;;;;24.58;12.98;;;8.10;99.90;;;;;;5010654;28;20102;-76
2022/01/05 03:31:38;;;;;;;27.52;12.85;;;8.10;99.90;;;;;;5011055;28;20041;-77
2022/01/05 03:34:05;;;;;;;23.50;12.20;;;8.20;99.90;;;;;;5011376;28;20048;-77
2022/01/05 03:36:32;;;;;;;20.45;9.75;;;8.20;99.90;;;;;;5014478;28;20041;-79
2022/01/05 03:38:57;;;;;;;22.67;9.80;;;8.20;99.90;;;;;;5014605;28;20018;-79
2022/01/05 03:41:23;;;;;;;15.45;8.27;;;8.20;99.90;;;;;;5014215;28;20038;-79
2022/01/05 03:43:49;;;;;;;16.92;8.38;;;8.30;99.90;;;;;;5014567;28;20112;-79
2022/01/05 03:46:15;;;;;;;14.65;7.60;;;8.30;99.90;;;;;;5014354;28;20042;-77
2022/01/05 03:48:41;;;;;;;18.13;8.73;;;8.30;99.90;;;;;;5014093;28;20599;-78
2022/01/05 03:51:07;;;;;;;15.48;8.30;;;8.40;99.90;;;;;;5014115;28;20026;-77
2022/01/05 03:53:33;;;;;;;16.00;7.68;;;8.40;99.90;;;;;;5013613;28;20032;-77
2022/01/05 03:55:59;;;;;;;16.40;8.13;;;8.30;99.90;;;;;;5013586;28;20049;-77
2022/01/05 03:58:25;;;;;;;23.25;12.38;;;8.40;99.90;;;;;;5012779;28;20026;-78
2022/01/05 04:00:51;;;;;;;35.47;17.55;;;8.30;99.90;;;;;;5013709;28;20121;-79
2022/01/05 04:03:18;;;;;;;32.72;15.90;;;8.30;99.90;;;;;;5013917;28;20033;-78
2022/01/05 04:05:44;;;;;;;49.63;24.52;;;8.30;99.90;;;;;;5013620;28;20048;-75
2022/01/05 04:08:10;;;;;;;51.63;23.60;;;8.30;99.90;;;;;;5013578;28;20034;-75
2022/01/05 04:10:36;;;;;;;31.50;16.95;;;8.30;99.90;;;;;;5013682;28;20479;-78
2022/01/05 04:13:03;;;;;;;31.85;15.38;;;8.30;99.90;;;;;;5013588;28;20033;-73
2022/01/05 04:15:29;;;;;;;26.63;12.75;;;8.30;99.90;;;;;;5013813;28;20028;-77
2022/01/05 04:17:55;;;;;;;42.13;20.95;;;8.20;99.90;;;;;;5013790;28;20026;-79
2022/01/05 04:20:21;;;;;;;21.23;9.85;;;8.20;99.90;;;;;;5013498;28;20029;-76
2022/01/05 04:22:47;;;;;;;19.90;9.63;;;8.20;99.90;;;;;;5013446;28;20030;-76
2022/01/05 04:25:14;;;;;;;14.63;7.88;;;8.20;99.90;;;;;;5013777;28;20036;-76
2022/01/05 04:27:40;;;;;;;16.02;8.27;;;8.20;99.90;;;;;;5013405;28;20516;-78
2022/01/05 04:30:08;;;;;;;14.30;8.57;;;8.30;99.90;;;;;;5013235;28;20022;-78
2022/01/05 04:32:36;;;;;;;16.42;8.45;;;8.30;99.90;;;;;;5013609;28;20487;-79
2022/01/05 04:35:03;;;;;;;15.85;8.38;;;8.30;99.90;;;;;;5013719;28;20057;-78
2022/01/05 04:37:31;;;;;;;17.77;8.98;;;8.30;99.90;;;;;;5013409;28;20432;-78
2022/01/05 04:39:58;;;;;;;16.13;8.57;;;8.40;99.90;;;;;;5013251;28;20037;-78
2022/01/05 04:42:24;;;;;;;16.20;7.45;;;8.50;99.90;;;;;;5013571;28;20042;-78
2022/01/05 04:44:51;;;;;;;16.67;8.02;;;8.50;99.90;;;;;;5012982;28;20044;-79
2022/01/05 04:47:16;;;;;;;18.45;8.90;;;8.60;99.90;;;;;;5012539;28;20022;-79
2022/01/05 04:49:42;;;;;;;22.38;11.52;;;8.60;99.90;;;;;;5013180;28;20034;-78
2022/01/05 04:52:08;;;;;;;17.05;7.93;;;8.70;99.90;;;;;;5019096;28;20022;-80
2022/01/05 04:54:34;;;;;;;14.60;9.10;;;8.70;99.90;;;;;;5015914;28;20073;-80
2022/01/05 04:57:00;;;;;;;14.90;8.52;;;8.70;99.90;;;;;;5012697;28;20740;-79
2022/01/05 04:59:26;;;;;;;16.70;8.68;;;8.70;99.90;;;;;;5012962;28;20029;-80
2022/01/05 05:01:51;;;;;;;16.20;7.97;;;8.80;99.90;;;;;;5012870;28;20037;-79
2022/01/05 05:04:17;;;;;;;14.50;7.13;;;8.90;99.90;;;;;;5012569;28;20085;-79
2022/01/05 05:06:43;;;;;;;17.58;9.30;;;8.90;99.90;;;;;;5012384;28;20484;-79
2022/01/05 05:09:09;;;;;;;20.50;10.98;;;9.00;99.90;;;;;;5012321;28;20121;-77
2022/01/05 05:11:35;;;;;;;30.73;18.52;;;9.00;99.90;;;;;;5012558;28;20038;-77
2022/01/05 05:14:01;;;;;;;22.92;11.68;;;9.00;99.90;;;;;;5012816;28;20100;-78
2022/01/05 05:16:26;;;;;;;18.77;10.82;;;9.10;99.90;;;;;;5012547;28;20533;-76
2022/01/05 05:18:52;;;;;;;20.83;10.82;;;9.10;99.90;;;;;;5012620;28;20487;-76
2022/01/05 05:21:18;;;;;;;23.63;13.02;;;9.10;99.90;;;;;;5012386;28;20030;-76
2022/01/05 05:23:44;;;;;;;21.10;10.73;;;9.10;99.90;;;;;;5011842;28;20034;-73
2022/01/05 05:26:10;;;;;;;18.50;9.98;;;9.20;99.90;;;;;;5011665;28;20475;-76
2022/01/05 05:28:36;;;;;;;21.25;12.65;;;9.20;99.90;;;;;;5012319;28;20022;-76
2022/01/05 05:31:02;;;;;;;24.02;12.63;;;9.20;99.90;;;;;;5012411;28;20058;-76
2022/01/05 05:33:27;;;;;;;22.35;12.65;;;9.10;99.90;;;;;;5012492;28;20056;-77
2022/01/05 05:35:53;;;;;;;21.00;11.40;;;9.20;99.90;;;;;;5012409;28;20038;-76
2022/01/05 05:38:19;;;;;;;26.30;15.45;;;9.20;99.90;;;;;;5013136;28;20029;-76
2022/01/05 05:40:45;;;;;;;43.95;26.23;;;9.20;99.90;;;;;;5011924;28;20022;-76
2022/01/05 05:43:11;;;;;;;33.47;18.80;;;9.20;99.90;;;;;;5012209;28;20021;-77
2022/01/05 05:45:38;;;;;;;27.00;16.08;;;9.20;99.90;;;;;;5012091;28;20045;-76
2022/01/05 05:48:04;;;;;;;26.73;14.13;;;9.20;99.90;;;;;;5012254;28;20101;-76
2022/01/05 05:50:31;;;;;;;21.40;11.23;;;9.20;99.90;;;;;;5010943;28;20034;-75
2022/01/05 05:52:56;;;;;;;20.67;10.90;;;9.30;99.90;;;;;;5012036;28;20025;-76
2022/01/05 05:55:22;;;;;;;19.52;10.57;;;9.40;99.90;;;;;;5011957;28;20030;-77
2022/01/05 05:57:48;;;;;;;19.00;9.80;;;9.40;99.90;;;;;;5010823;28;20127;-77
2022/01/05 06:00:15;;;;;;;18.63;9.27;;;9.40;99.90;;;;;;5012223;28;20108;-76
2022/01/05 06:02:41;;;;;;;19.90;10.50;;;9.40;99.90;;;;;;5011832;28;20045;-77
2022/01/05 06:05:08;;;;;;;19.55;10.70;;;9.40;99.90;;;;;;5011711;28;20076;-77
2022/01/05 06:07:33;;;;;;;19.48;10.65;;;9.40;99.90;;;;;;5012216;28;20034;-75
2022/01/05 06:10:00;;;;;;;19.20;8.88;;;9.40;99.90;;;;;;5011478;28;20084;-76
2022/01/05 06:12:27;;;;;;;23.98;12.68;;;9.40;99.90;;;;;;5011681;28;20026;-77
2022/01/05 06:14:52;;;;;;;20.83;10.35;;;9.40;99.90;;;;;;5011592;28;20022;-77
2022/01/05 06:17:19;;;;;;;22.05;10.73;;;9.40;99.90;;;;;;5010581;28;20030;-77
2022/01/05 06:19:45;;;;;;;20.63;11.93;;;9.40;99.90;;;;;;5011483;28;20014;-76
2022/01/05 06:22:11;;;;;;;20.17;10.98;;;9.40;99.90;;;;;;5011615;28;20033;-74
2022/01/05 06:24:39;;;;;;;20.45;12.85;;;9.40;99.90;;;;;;5011266;28;20033;-76
2022/01/05 06:27:05;;;;;;;22.15;11.60;;;9.30;99.90;;;;;;5011764;28;20561;-75
2022/01/05 06:29:31;;;;;;;22.40;11.13;;;9.30;99.90;;;;;;5011273;28;20555;-76
2022/01/05 06:31:57;;;;;;;17.70;10.30;;;9.30;99.90;;;;;;5011211;28;20034;-76
2022/01/05 06:34:22;;;;;;;20.33;13.15;;;9.30;99.90;;;;;;5011512;28;20022;-76
2022/01/05 06:36:48;;;;;;;37.78;19.25;;;9.30;99.90;;;;;;5011355;28;20041;-76
2022/01/05 06:39:16;;;;;;;40.70;23.30;;;9.30;99.90;;;;;;5011545;28;20022;-77
2022/01/05 06:41:41;;;;;;;31.70;18.33;;;9.30;99.90;;;;;;5011148;28;20380;-75
2022/01/05 06:44:08;;;;;;;45.65;24.63;;;9.30;99.90;;;;;;5011257;28;20018;-76
2022/01/05 06:46:34;;;;;;;27.25;14.65;;;9.40;99.90;;;;;;5011125;28;20041;-76
2022/01/05 06:49:00;;;;;;;41.13;22.92;;;9.50;99.90;;;;;;5011176;28;20014;-74
2022/01/05 06:51:25;;;;;;;34.15;18.27;;;9.60;99.90;;;;;;5011150;28;20041;-75
2022/01/05 06:53:51;;;;;;;28.88;15.73;;;9.70;99.90;;;;;;5011220;28;20026;-77
2022/01/05 06:56:17;;;;;;;19.98;11.73;;;9.80;99.90;;;;;;5010776;28;20050;-76
2022/01/05 06:58:43;;;;;;;23.52;12.90;;;9.90;99.90;;;;;;5011138;28;20038;-76
2022/01/05 07:01:09;;;;;;;27.23;14.57;;;10.00;99.90;;;;;;5011137;28;20048;-75
2022/01/05 07:03:35;;;;;;;33.33;17.70;;;10.10;99.90;;;;;;5011045;28;20457;-75
2022/01/05 07:06:00;;;;;;;72.10;35.72;;;10.20;99.90;;;;;;5011155;28;20040;-76
2022/01/05 07:08:26;;;;;;;99.90;46.83;;;10.10;99.90;;;;;;4993165;28;20026;-76
2022/01/05 07:10:52;;;;;;;92.60;46.60;;;10.10;99.90;;;;;;5014882;28;20026;-76
2022/01/05 07:13:18;;;;;;;51.28;28.17;;;10.10;99.90;;;;;;5014897;28;20029;-75
2022/01/05 07:15:44;;;;;;;91.93;43.75;;;10.10;99.90;;;;;;5014680;28;20030;-76
2022/01/05 07:18:09;;;;;;;62.60;37.58;;;10.10;99.90;;;;;;5014878;28;20048;-74
2022/01/05 07:20:35;;;;;;;48.92;28.70;;;10.10;99.90;;;;;;5014630;28;20026;-76
2022/01/05 07:23:01;;;;;;;32.05;19.08;;;10.00;99.90;;;;;;5014707;28;20026;-75
2022/01/05 07:25:27;;;;;;;29.38;16.75;;;10.00;99.90;;;;;;5014322;28;20053;-76
2022/01/05 07:27:53;;;;;;;32.90;19.10;;;10.00;99.90;;;;;;5014139;28;20025;-76
2022/01/05 07:30:18;;;;;;;31.27;20.60;;;10.00;99.90;;;;;;5014520;28;20053;-77
2022/01/05 07:32:44;;;;;;;31.95;20.30;;;10.00;99.90;;;;;;5014522;28;20116;-76
2022/01/05 07:35:10;;;;;;;33.55;20.65;;;10.00;99.90;;;;;;5014446;28;20038;-75
2022/01/05 07:37:36;;;;;;;31.88;19.95;;;10.00;99.90;;;;;;5014182;28;20032;-76
2022/01/05 07:40:03;;;;;;;32.58;20.58;;;10.00;99.90;;;;;;5011975;28;20109;-76
2022/01/05 07:42:33;;;;;;;32.72;19.15;;;10.10;99.90;;;;;;5010751;28;20032;-73
2022/01/05 07:45:00;;;;;;;26.80;16.42;;;10.20;99.90;;;;;;5012536;28;20049;-76
2022/01/05 07:47:26;;;;;;;31.50;19.20;;;10.40;99.90;;;;;;5012878;28;20092;-76
2022/01/05 07:49:52;;;;;;;30.20;17.70;;;10.60;99.90;;;;;;5014142;28;20026;-76
2022/01/05 07:52:18;;;;;;;32.97;18.85;;;10.80;99.90;;;;;;5014105;28;20068;-75
2022/01/05 07:54:44;;;;;;;27.40;17.58;;;10.90;99.90;;;;;;5006890;28;20017;-74
2022/01/05 07:57:09;;;;;;;29.92;17.65;;;10.90;99.90;;;;;;5010183;28;20046;-76
2022/01/05 07:59:35;;;;;;;32.20;18.45;;;11.00;99.90;;;;;;5013627;28;20029;-76
2022/01/05 08:02:01;;;;;;;31.00;17.83;;;11.00;99.90;;;;;;5013965;28;20053;-76
2022/01/05 08:04:27;;;;;;;25.50;15.82;;;11.00;99.90;;;;;;5013776;28;20475;-76
2022/01/05 08:06:53;;;;;;;29.75;16.75;;;11.00;99.90;;;;;;5013594;28;20022;-75
2022/01/05 08:09:18;;;;;;;32.92;18.00;;;11.10;99.90;;;;;;5013481;28;20065;-77
2022/01/05 08:11:44;;;;;;;30.10;15.90;;;11.10;99.90;;;;;;5013319;28;20026;-75
2022/01/05 08:14:11;;;;;;;24.92;14.90;;;11.10;99.90;;;;;;5013431;28;20339;-76
2022/01/05 08:16:37;;;;;;;33.40;18.27;;;11.00;99.90;;;;;;5013438;28;20487;-76
2022/01/05 08:19:03;;;;;;;30.90;16.92;;;11.00;99.90;;;;;;5013790;28;20110;-76
2022/01/05 08:21:29;;;;;;;25.55;15.48;;;11.10;99.90;;;;;;5012380;28;20086;-75
2022/01/05 08:23:55;;;;;;;32.40;17.27;;;11.00;99.90;;;;;;5013527;28;20484;-77
2022/01/05 08:26:21;;;;;;;25.58;16.25;;;11.10;99.90;;;;;;5013427;28;20066;-77
2022/01/05 08:28:47;;;;;;;24.98;15.52;;;11.30;99.90;;;;;;5013151;28;20061;-76
2022/01/05 08:31:12;;;;;;;30.23;17.50;;;11.50;99.90;;;;;;5013767;28;20056;-75
2022/01/05 08:33:39;;;;;;;27.08;17.15;;;11.70;99.90;;;;;;5013377;28;20026;-75
2022/01/05 08:36:04;;;;;;;28.48;17.73;;;11.90;99.90;;;;;;5013314;28;20052;-76
2022/01/05 08:38:32;;;;;;;26.10;16.33;;;12.10;99.60;;;;;;5013025;28;20504;-77
2022/01/05 08:40:58;;;;;;;27.02;15.73;;;12.20;98.20;;;;;;5013425;28;20026;-77
2022/01/05 08:43:24;;;;;;;26.80;14.55;;;12.40;98.10;;;;;;5012833;28;20037;-77
2022/01/05 08:45:50;;;;;;;26.83;14.32;;;12.50;97.10;;;;;;5012971;28;20083;-77
2022/01/05 08:48:16;;;;;;;23.50;14.48;;;12.70;96.70;;;;;;5013637;28;20503;-76
2022/01/05 08:54:06;;;;;;;28.80;17.52;;;13.00;96.40;;;;;;4562482;23;20052;-75
2022/01/05 08:56:32;;;;;;;35.38;16.92;;;13.30;95.40;;;;;;5040754;23;20081;-70
2022/01/05 08:58:58;;;;;;;23.63;15.48;;;13.50;95.10;;;;;;4989359;28;20121;-77
2022/01/05 09:01:25;;;;;;;24.42;14.32;;;13.70;95.60;;;;;;4992846;28;20027;-74
2022/01/05 09:03:52;;;;;;;27.58;15.93;;;13.90;93.90;;;;;;4974302;28;20084;-76
2022/01/05 09:06:19;;;;;;;27.40;16.35;;;14.00;93.60;;;;;;4992583;28;20065;-73
2022/01/05 09:08:46;;;;;;;26.85;16.63;;;14.20;92.80;;;;;;4991919;28;20050;-76
2022/01/05 09:11:12;;;;;;;29.30;15.40;;;14.40;93.60;;;;;;4992276;28;20577;-72
2022/01/05 09:13:38;;;;;;;26.40;13.60;;;14.30;92.20;;;;;;4990962;28;20026;-74
2022/01/05 09:16:05;;;;;;;31.27;16.23;;;14.40;91.80;;;;;;4972844;28;20030;-72
2022/01/05 09:18:30;;;;;;;28.25;16.42;;;14.50;92.10;;;;;;4990607;28;20481;-74
2022/01/05 09:20:57;;;;;;;27.58;16.13;;;14.60;92.50;;;;;;4991056;28;20030;-78
2022/01/05 09:23:23;;;;;;;26.23;16.27;;;14.80;91.80;;;;;;4990820;28;20026;-78
2022/01/05 09:25:51;;;;;;;26.98;14.95;;;14.90;91.90;;;;;;4991082;28;20033;-77
2022/01/05 09:28:20;;;;;;;27.00;13.43;;;14.90;90.90;;;;;;5003843;28;20030;-79
2022/01/05 09:30:47;;;;;;;22.92;12.50;;;15.00;91.10;;;;;;4994509;28;20034;-75
2022/01/05 09:33:14;;;;;;;22.10;13.38;;;15.10;91.00;;;;;;4977831;28;20053;-75
2022/01/05 09:35:41;;;;;;;19.65;10.55;;;15.10;90.80;;;;;;4992911;28;20023;-76
2022/01/05 09:38:11;;;;;;;23.33;11.43;;;15.20;90.90;;;;;;4991545;28;20026;-78
2022/01/05 09:43:22;;;;;;;19.15;10.60;;;15.60;90.30;;;;;;4991225;28;20019;-76
2022/01/05 09:45:59;;;;;;;22.75;11.82;;;15.70;89.90;;;;;;4991016;28;20041;-76
2022/01/05 09:48:49;;;;;;;27.63;13.73;;;15.80;89.80;;;;;;4991972;28;20481;-75
2022/01/05 09:51:18;;;;;;;21.27;12.60;;;15.90;88.70;;;;;;4991263;28;20054;-74
2022/01/05 09:53:45;;;;;;;19.42;10.65;;;16.00;89.40;;;;;;4990656;28;20019;-76
2022/01/05 09:56:12;;;;;;;22.77;12.20;;;16.20;87.90;;;;;;4991296;28;20053;-74
2022/01/05 09:58:42;;;;;;;21.67;11.00;;;16.20;88.20;;;;;;5009143;28;20042;-76
2022/01/05 10:01:08;;;;;;;25.92;13.75;;;16.40;87.50;;;;;;5010870;28;20049;-79
2022/01/05 10:03:34;;;;;;;22.63;11.93;;;16.50;87.10;;;;;;5011090;28;20222;-77
2022/01/05 10:06:01;;;;;;;19.92;10.80;;;16.40;86.10;;;;;;4992953;28;20045;-76
2022/01/05 10:08:28;;;;;;;27.60;11.23;;;16.30;86.00;;;;;;5010790;28;20018;-76
2022/01/05 10:10:54;;;;;;;20.77;12.27;;;16.20;86.10;;;;;;4993434;28;20025;-76
2022/01/05 10:13:20;;;;;;;30.52;15.73;;;16.20;87.00;;;;;;4993838;28;20376;-77
2022/01/05 10:15:47;;;;;;;21.80;12.77;;;16.10;87.50;;;;;;5010770;28;20032;-75
2022/01/05 10:18:13;;;;;;;29.40;12.40;;;16.10;87.10;;;;;;5002469;28;20029;-74
2022/01/05 10:20:55;;;;;;;22.38;12.48;;;16.00;87.10;;;;;;5010248;28;20052;-76
2022/01/05 10:23:52;;;;;;;21.85;14.82;;;16.10;88.10;;;;;;5011120;28;20080;-76
2022/01/05 10:26:28;;;;;;;22.73;10.40;;;16.40;86.80;;;;;;4998428;28;20391;-76
2022/01/05 10:29:16;;;;;;;21.17;11.80;;;16.50;85.80;;;;;;4994307;28;20033;-74
2022/01/05 10:31:44;;;;;;;22.58;11.60;;;16.70;85.40;;;;;;4998902;28;20022;-74
2022/01/05 10:34:36;;;;;;;30.50;18.35;;;16.70;85.00;;;;;;5009998;28;20037;-75
2022/01/05 10:37:06;;;;;;;30.30;14.68;;;16.80;84.60;;;;;;4989493;28;20065;-76
2022/01/05 10:39:37;;;;;;;18.75;10.07;;;16.80;85.20;;;;;;5014317;28;20026;-75
2022/01/05 10:42:05;;;;;;;16.42;8.95;;;16.80;84.90;;;;;;5009738;28;20030;-71
2022/01/05 10:44:31;;;;;;;24.73;12.18;;;16.80;86.00;;;;;;5000573;28;20040;-74
2022/01/05 10:47:00;;;;;;;21.52;9.93;;;16.80;86.40;;;;;;5009473;28;20383;-77
2022/01/05 10:49:35;;;;;;;19.75;11.38;;;16.70;86.20;;;;;;5009590;28;20441;-73
2022/01/05 10:52:23;;;;;;;21.65;12.30;;;16.70;85.10;;;;;;5010437;28;20100;-76
2022/01/05 10:54:50;;;;;;;24.42;13.80;;;16.80;86.20;;;;;;5010550;28;20034;-76
2022/01/05 10:57:17;;;;;;;28.33;13.40;;;16.80;85.00;;;;;;4992413;28;20083;-74
2022/01/05 10:59:46;;;;;;;19.95;12.20;;;16.60;84.90;;;;;;5007516;28;20036;-75
2022/01/05 11:02:24;;;;;;;32.13;18.75;;;16.50;84.90;;;;;;5005010;28;20021;-74
2022/01/05 11:05:11;;;;;;;38.20;22.77;;;16.40;85.70;;;;;;4994522;28;20042;-75
2022/01/05 11:07:39;;;;;;;28.02;11.75;;;16.30;86.10;;;;;;5001523;28;20042;-76
2022/01/05 11:10:21;;;;;;;24.92;12.88;;;16.20;84.90;;;;;;4993713;28;20026;-75
2022/01/05 11:12:53;;;;;;;26.98;14.07;;;16.20;87.40;;;;;;4992329;28;20065;-76
2022/01/05 11:15:24;;;;;;;23.63;11.00;;;16.10;86.50;;;;;;5009604;28;20049;-76
2022/01/05 11:18:08;;;;;;;21.58;11.55;;;16.00;87.50;;;;;;5008992;28;20066;-73
2022/01/05 11:21:01;;;;;;;24.55;11.25;;;15.90;86.30;;;;;;4999369;28;20157;-75
2022/01/05 11:23:30;;;;;;;27.13;13.32;;;15.80;87.50;;;;;;5004943;28;20060;-75
2022/01/05 11:25:58;;;;;;;24.75;13.18;;;15.70;88.60;;;;;;5006858;28;20045;-73
2022/01/05 11:28:27;;;;;;;27.92;14.98;;;15.70;89.20;;;;;;5003938;28;20025;-76
2022/01/05 11:30:55;;;;;;;33.70;14.43;;;15.70;88.70;;;;;;5009706;28;20022;-73
2022/01/05 11:33:22;;;;;;;31.73;16.15;;;15.60;89.80;;;;;;5008599;28;20026;-75
2022/01/05 11:35:49;;;;;;;29.40;13.68;;;15.60;90.40;;;;;;5010093;28;20030;-70
2022/01/05 11:38:16;;;;;;;37.53;17.60;;;15.60;90.30;;;;;;5009552;28;20042;-76
2022/01/05 11:40:49;;;;;;;32.72;16.08;;;15.70;90.60;;;;;;5008627;28;20033;-75
2022/01/05 11:43:39;;;;;;;25.17;13.93;;;15.70;90.50;;;;;;4992219;28;20121;-72
2022/01/05 11:46:17;;;;;;;35.78;17.25;;;15.70;90.90;;;;;;5009132;28;20078;-71
2022/01/05 11:49:01;;;;;;;35.00;20.50;;;15.70;91.30;;;;;;5009761;28;20040;-70
2022/01/05 11:51:45;;;;;;;30.20;14.55;;;15.70;91.10;;;;;;5009703;28;20050;-72
2022/01/05 11:54:14;;;;;;;27.55;15.85;;;15.70;91.00;;;;;;5001121;28;20091;-75
2022/01/05 11:56:51;;;;;;;34.30;14.73;;;15.70;91.80;;;;;;5009704;28;20037;-75
2022/01/05 11:59:33;;;;;;;25.98;12.90;;;15.60;91.80;;;;;;5009644;28;20035;-74
2022/01/05 12:02:15;;;;;;;19.92;11.07;;;15.60;91.80;;;;;;4993793;28;20432;-75
2022/01/05 12:04:56;;;;;;;23.03;12.73;;;15.70;91.40;;;;;;5008438;28;20421;-76
2022/01/05 12:07:39;;;;;;;28.63;13.48;;;15.60;91.90;;;;;;5013868;28;20026;-75
2022/01/05 12:10:12;;;;;;;36.35;18.90;;;15.50;92.60;;;;;;5001851;28;20480;-73
2022/01/05 12:12:53;;;;;;;36.20;19.83;;;15.50;92.70;;;;;;5008275;28;20022;-76
2022/01/05 12:15:39;;;;;;;35.25;18.33;;;15.40;92.90;;;;;;4992349;28;20061;-76
2022/01/05 12:18:06;;;;;;;28.80;17.10;;;15.40;93.20;;;;;;4991383;28;20087;-77
2022/01/05 12:20:37;;;;;;;30.65;17.02;;;15.40;93.70;;;;;;5010856;28;20461;-77
2022/01/05 12:23:26;;;;;;;35.67;17.45;;;15.40;93.70;;;;;;5012098;28;20038;-77
2022/01/05 12:26:05;;;;;;;28.67;18.08;;;15.50;93.80;;;;;;4993061;28;20121;-77
2022/01/05 12:28:34;;;;;;;37.58;21.88;;;15.50;94.20;;;;;;5006468;28;20018;-78
2022/01/05 12:31:00;;;;;;;39.70;25.17;;;15.60;94.80;;;;;;5002458;28;20022;-74
2022/01/05 12:33:40;;;;;;;37.35;23.42;;;15.60;94.10;;;;;;5006235;28;20027;-73
2022/01/05 12:36:08;;;;;;;34.67;19.48;;;15.60;93.60;;;;;;5001582;28;20022;-71
2022/01/05 12:38:45;;;;;;;33.63;19.65;;;15.60;93.60;;;;;;5001784;28;20484;-74
2022/01/05 12:41:34;;;;;;;28.45;17.92;;;15.60;93.50;;;;;;5004931;28;20026;-75
2022/01/05 12:44:26;;;;;;;27.33;15.32;;;15.60;93.60;;;;;;5005684;28;20042;-75
2022/01/05 12:46:54;;;;;;;32.45;17.15;;;15.60;93.40;;;;;;4974947;28;20127;-74